Time;durP1;ratioP1;P1;durP2;ratioP2;P2;SDS_P1;SDS_P2;PMS_P1;PMS_P2;Temp;Humidity;BMP_temperature;BMP_pressure;BME280_temperature;BME280_humidity;BME280_pressure;Samples;Min_cycle;Max_cycle;Signal;HPM_P1;HPM_P2
2021/07/17 00:02:32;;;;;;;33.92;15.48;;;;;;;17.39;72.24;101203.09;10353831;28;20242;-74
2021/07/17 00:07:36;;;;;;;35.60;16.30;;;;;;;17.27;72.46;101194.25;10351058;28;20238;-73
2021/07/17 00:12:39;;;;;;;31.55;16.60;;;;;;;17.25;72.89;101199.84;10352661;28;20234;-74
2021/07/17 00:17:44;;;;;;;33.95;14.73;;;;;;;17.21;72.74;101200.28;10354781;28;20245;-74
2021/07/17 00:22:47;;;;;;;30.15;14.55;;;;;;;17.25;72.83;101207.13;10352973;28;20236;-74
2021/07/17 00:27:51;;;;;;;30.77;15.35;;;;;;;17.30;72.97;101210.25;10354627;28;20794;-74
2021/07/17 00:32:55;;;;;;;33.47;14.65;;;;;;;17.31;72.72;101206.56;10354012;28;20242;-73
2021/07/17 00:37:58;;;;;;;29.55;16.83;;;;;;;17.16;72.81;101214.28;10337865;28;20742;-74
2021/07/17 00:43:01;;;;;;;32.22;16.20;;;;;;;17.14;72.75;101200.03;10350427;28;20596;-74
2021/07/17 00:48:06;;;;;;;32.63;15.70;;;;;;;17.15;72.79;101199.03;10350721;28;20253;-74
2021/07/17 00:53:09;;;;;;;29.77;15.15;;;;;;;17.06;72.93;101205.31;10355342;28;20245;-74
2021/07/17 00:58:14;;;;;;;29.88;15.48;;;;;;;16.85;73.42;101204.63;10350644;28;20597;-74
2021/07/17 01:03:19;;;;;;;31.05;15.88;;;;;;;16.87;73.55;101205.38;10352135;28;20738;-74
2021/07/17 01:08:23;;;;;;;29.58;15.40;;;;;;;16.69;73.73;101202.50;10352934;28;21816;-74
2021/07/17 01:13:25;;;;;;;35.60;15.57;;;;;;;16.79;73.36;101200.66;10353319;28;20304;-74
2021/07/17 01:18:30;;;;;;;28.75;14.38;;;;;;;16.89;72.97;101201.47;10352032;28;20242;-74
2021/07/17 01:23:35;;;;;;;26.88;14.73;;;;;;;16.27;74.63;101194.69;10352775;28;20234;-74
2021/07/17 01:28:38;;;;;;;28.00;13.60;;;;;;;16.52;74.05;101195.97;10351170;28;20753;-74
2021/07/17 01:33:42;;;;;;;29.30;14.20;;;;;;;16.68;73.41;101198.09;10353127;28;20749;-74
2021/07/17 01:38:46;;;;;;;36.97;15.68;;;;;;;16.83;73.24;101201.22;10350385;28;20230;-74
2021/07/17 01:43:50;;;;;;;30.33;14.13;;;;;;;16.73;73.24;101202.09;10349333;28;20246;-73
2021/07/17 01:48:54;;;;;;;33.03;13.77;;;;;;;16.78;73.39;101197.09;10352061;28;20235;-74
2021/07/17 01:54:00;;;;;;;32.90;14.02;;;;;;;16.88;73.07;101198.91;10350723;28;20229;-75
2021/07/17 01:59:03;;;;;;;32.97;14.95;;;;;;;16.66;74.19;101197.38;10349268;28;20619;-75
2021/07/17 02:04:06;;;;;;;33.80;15.35;;;;;;;16.54;74.94;101191.25;10348390;28;20610;-73
2021/07/17 02:09:10;;;;;;;33.40;14.90;;;;;;;16.58;75.19;101193.53;10349617;28;20238;-74
2021/07/17 02:14:13;;;;;;;37.63;16.67;;;;;;;16.26;76.50;101187.53;10393903;28;20676;-73
2021/07/17 02:19:20;;;;;;;24.02;14.20;;;;;;;16.41;76.00;101199.69;10391416;28;20246;-74
2021/07/17 02:24:24;;;;;;;29.67;14.57;;;;;;;16.30;76.04;101188.97;10389338;28;20233;-74
2021/07/17 02:29:27;;;;;;;25.33;14.63;;;;;;;16.45;75.88;101184.81;10391964;28;20238;-74
2021/07/17 02:34:30;;;;;;;27.52;13.95;;;;;;;16.45;75.50;101181.25;10390938;28;21131;-74
2021/07/17 02:39:34;;;;;;;27.90;14.55;;;;;;;16.54;75.42;101189.41;10390561;28;20237;-73
2021/07/17 02:44:37;;;;;;;27.65;13.75;;;;;;;16.65;75.08;101192.94;10389577;28;20252;-74
2021/07/17 02:49:40;;;;;;;30.30;14.32;;;;;;;16.59;75.39;101191.66;10392089;28;20803;-74
2021/07/17 02:54:44;;;;;;;28.90;13.45;;;;;;;16.56;75.21;101186.53;10389902;28;20248;-75
2021/07/17 02:59:47;;;;;;;25.23;14.00;;;;;;;16.39;76.41;101179.13;10391761;28;20248;-74
2021/07/17 03:04:50;;;;;;;28.52;14.70;;;;;;;16.50;75.85;101163.56;10388920;28;20621;-74
2021/07/17 03:09:54;;;;;;;26.88;13.27;;;;;;;16.63;75.03;101171.41;10389355;28;20241;-73
2021/07/17 03:14:57;;;;;;;31.42;12.93;;;;;;;16.56;75.05;101172.97;10389216;28;20710;-75
2021/07/17 03:20:00;;;;;;;30.10;13.20;;;;;;;16.29;75.49;101163.72;10389497;28;20243;-73
2021/07/17 03:25:06;;;;;;;27.33;13.10;;;;;;;16.04;76.35;101166.94;10390341;28;20233;-74
2021/07/17 03:30:10;;;;;;;29.40;13.63;;;;;;;16.15;75.61;101164.97;10390278;28;20233;-74
2021/07/17 03:35:13;;;;;;;26.13;12.05;;;;;;;16.05;76.01;101171.38;10388584;28;20234;-74
2021/07/17 03:40:17;;;;;;;22.75;12.55;;;;;;;16.15;76.38;101170.41;10387726;28;20607;-73
2021/07/17 03:45:20;;;;;;;23.67;11.98;;;;;;;15.92;76.80;101168.94;10386005;28;20233;-73
2021/07/17 03:50:23;;;;;;;31.98;13.05;;;;;;;16.17;76.22;101175.66;10385648;28;20229;-73
2021/07/17 03:55:27;;;;;;;25.80;12.82;;;;;;;16.18;76.20;101162.97;10387139;28;20242;-73
2021/07/17 04:00:30;;;;;;;29.35;12.10;;;;;;;16.06;76.72;101163.09;10389480;28;20237;-73
2021/07/17 04:05:33;;;;;;;25.05;12.75;;;;;;;15.98;76.87;101170.22;10387137;28;20249;-74
2021/07/17 04:10:37;;;;;;;31.35;12.20;;;;;;;16.11;76.98;101170.81;10386462;28;20226;-73
2021/07/17 04:15:40;;;;;;;32.33;13.30;;;;;;;16.24;76.43;101179.53;10388188;28;20719;-74
2021/07/17 04:20:43;;;;;;;31.08;12.93;;;;;;;16.44;75.81;101177.69;10386675;28;20236;-74
2021/07/17 04:25:47;;;;;;;28.52;12.35;;;;;;;16.46;75.56;101172.16;10388590;28;20240;-74
2021/07/17 04:30:51;;;;;;;27.13;13.75;;;;;;;16.46;75.36;101175.72;10388681;28;20246;-74
2021/07/17 04:35:54;;;;;;;21.77;12.15;;;;;;;16.34;76.12;101180.41;10394171;28;20234;-74
2021/07/17 04:40:58;;;;;;;29.17;12.82;;;;;;;16.10;76.99;101185.38;10395491;28;20233;-74
2021/07/17 04:46:01;;;;;;;28.50;12.60;;;;;;;16.34;76.53;101179.53;10395911;28;20238;-74
2021/07/17 04:51:04;;;;;;;28.92;13.32;;;;;;;16.50;75.73;101177.13;10392156;28;20267;-74
2021/07/17 04:56:09;;;;;;;27.52;12.75;;;;;;;16.23;76.62;101176.94;10395426;28;20234;-72
2021/07/17 05:01:12;;;;;;;25.70;12.52;;;;;;;16.38;76.67;101174.72;10392258;28;20350;-74
2021/07/17 05:06:16;;;;;;;24.45;12.55;;;;;;;16.49;75.61;101185.41;10393249;28;20570;-74
2021/07/17 05:11:20;;;;;;;26.02;12.35;;;;;;;16.35;76.87;101189.41;10393878;28;20238;-74
2021/07/17 05:16:23;;;;;;;24.85;13.02;;;;;;;16.92;74.68;101178.63;10393721;28;20301;-75
2021/07/17 05:21:26;;;;;;;24.85;12.30;;;;;;;17.12;73.96;101172.16;10393857;28;20237;-74
2021/07/17 05:26:31;;;;;;;26.50;11.85;;;;;;;16.88;73.79;101183.50;10392511;28;20234;-74
2021/07/17 05:31:34;;;;;;;41.08;12.77;;;;;;;16.69;74.90;101188.94;10352192;28;20227;-74
2021/07/17 05:36:37;;;;;;;25.83;11.07;;;;;;;16.60;75.73;101193.41;10345942;28;20230;-73
2021/07/17 05:41:41;;;;;;;32.42;11.80;;;;;;;16.56;75.68;101191.94;10327733;28;20298;-71
2021/07/17 05:46:44;;;;;;;26.95;10.85;;;;;;;16.78;75.14;101191.66;10309969;28;20279;-71
2021/07/17 05:51:47;;;;;;;33.25;12.55;;;;;;;16.68;74.89;101209.81;10312484;28;20735;-71
2021/07/17 05:56:51;;;;;;;23.52;11.35;;;;;;;16.44;75.69;101201.25;10308305;28;20239;-71
2021/07/17 06:01:54;;;;;;;27.65;11.27;;;;;;;16.85;74.64;101200.06;10308379;28;20238;-72
2021/07/17 06:06:58;;;;;;;26.42;11.05;;;;;;;17.11;73.62;101215.72;10311981;28;20360;-71
2021/07/17 06:12:03;;;;;;;28.65;10.95;;;;;;;17.41;72.99;101217.34;10309700;28;20309;-71
2021/07/17 06:17:11;;;;;;;26.55;10.68;;;;;;;17.55;72.53;101208.75;10310926;28;20269;-71
2021/07/17 06:22:14;;;;;;;23.60;9.80;;;;;;;17.90;71.21;101212.53;10309281;28;20265;-71
2021/07/17 06:27:18;;;;;;;21.70;10.20;;;;;;;18.08;69.23;101213.47;10312039;28;20239;-71
2021/07/17 06:32:21;;;;;;;17.75;9.77;;;;;;;18.61;68.66;101213.63;10312963;28;20741;-72
2021/07/17 06:37:25;;;;;;;15.18;8.60;;;;;;;18.72;68.00;101216.94;10312940;28;20246;-72
2021/07/17 06:42:29;;;;;;;19.70;9.57;;;;;;;18.67;67.21;101215.72;10309812;28;20231;-72
2021/07/17 06:47:32;;;;;;;24.15;9.52;;;;;;;19.42;66.59;101222.41;10310310;28;20254;-71
2021/07/17 06:52:35;;;;;;;15.23;8.18;;;;;;;19.28;65.44;101230.28;10310259;28;20313;-71
2021/07/17 06:57:41;;;;;;;14.63;8.00;;;;;;;19.57;63.55;101232.72;10306826;28;20241;-71
2021/07/17 07:02:44;;;;;;;12.63;6.82;;;;;;;19.85;62.24;101233.34;10367788;28;20613;-72
2021/07/17 07:07:48;;;;;;;16.08;7.68;;;;;;;20.18;62.24;101233.44;10352652;28;20230;-70
2021/07/17 07:12:52;;;;;;;11.00;7.05;;;;;;;20.40;61.07;101231.97;10355411;28;20237;-72
2021/07/17 07:17:57;;;;;;;16.80;6.50;;;;;;;20.34;60.77;101233.50;10348293;28;20249;-72
2021/07/17 07:23:02;;;;;;;13.55;5.97;;;;;;;20.52;60.83;101236.94;10338270;28;20235;-72
2021/07/17 07:28:06;;;;;;;10.60;5.82;;;;;;;21.24;58.46;101244.44;10334885;28;20244;-72
2021/07/17 07:33:09;;;;;;;16.50;5.40;;;;;;;21.37;57.97;101244.75;10377521;28;20316;-72
2021/07/17 07:38:12;;;;;;;11.32;5.63;;;;;;;20.76;58.21;101238.84;10376664;28;20243;-72
2021/07/17 07:43:17;;;;;;;11.43;5.10;;;;;;;21.21;58.22;101242.06;10388631;28;20237;-73
2021/07/17 07:48:19;;;;;;;11.10;4.90;;;;;;;22.03;56.30;101244.53;10389455;28;20237;-71
2021/07/17 07:53:22;;;;;;;12.73;4.90;;;;;;;21.92;54.23;101251.25;10389822;28;20237;-70
2021/07/17 07:58:27;;;;;;;10.27;5.18;;;;;;;21.52;56.19;101249.50;10389763;28;20233;-74
2021/07/17 08:03:30;;;;;;;10.15;5.03;;;;;;;21.73;56.92;101246.19;10388729;28;20234;-73
2021/07/17 08:08:33;;;;;;;7.63;4.40;;;;;;;22.06;54.81;101239.56;10398902;28;20315;-71
2021/07/17 08:13:38;;;;;;;10.30;5.70;;;;;;;22.47;55.26;101244.81;10398165;28;20234;-72
2021/07/17 08:18:41;;;;;;;7.78;4.75;;;;;;;22.34;54.77;101239.88;10394827;28;20253;-71
2021/07/17 08:23:45;;;;;;;11.77;5.15;;;;;;;22.97;53.13;101243.34;10397973;28;20233;-71
2021/07/17 08:28:49;;;;;;;9.35;5.03;;;;;;;23.44;53.59;101231.25;10393265;28;20336;-70
2021/07/17 08:33:52;;;;;;;10.73;5.03;;;;;;;22.98;52.44;101238.72;10394029;28;20703;-71
2021/07/17 08:38:55;;;;;;;12.65;5.57;;;;;;;23.37;53.93;101241.28;10394061;28;20276;-71
2021/07/17 08:43:59;;;;;;;13.30;5.72;;;;;;;23.98;52.35;101246.56;10393531;28;20718;-72
2021/07/17 08:49:03;;;;;;;10.90;5.30;;;;;;;24.90;50.19;101243.13;10391945;28;20241;-71
2021/07/17 08:54:06;;;;;;;13.68;5.53;;;;;;;24.90;49.92;101245.88;10392903;28;20609;-71
2021/07/17 08:59:11;;;;;;;8.23;5.38;;;;;;;25.30;49.81;101248.94;10358529;28;20382;-71
2021/07/17 09:04:14;;;;;;;12.50;5.80;;;;;;;24.70;50.32;101255.81;10349421;28;20584;-72
2021/07/17 09:09:28;;;;;;;12.52;5.72;;;;;;;24.07;51.51;101247.28;10358361;28;20723;-71
2021/07/17 09:14:38;;;;;;;9.60;5.55;;;;;;;25.22;50.24;101253.75;10354595;28;20218;-71
2021/07/17 09:19:53;;;;;;;12.48;5.70;;;;;;;25.10;50.64;101248.81;10349144;28;20610;-72
2021/07/17 09:25:06;;;;;;;9.80;5.30;;;;;;;25.51;48.79;101239.78;10352853;28;20617;-71
2021/07/17 09:30:35;;;;;;;10.50;5.57;;;;;;;26.04;48.61;101239.19;10352670;28;20238;-72
2021/07/17 09:35:39;;;;;;;8.68;4.93;;;;;;;26.86;46.93;101229.88;10354294;28;20238;-71
2021/07/17 09:40:48;;;;;;;9.48;4.47;;;;;;;27.27;46.09;101233.44;10351017;28;20226;-71
2021/07/17 09:45:53;;;;;;;11.38;5.13;;;;;;;25.98;48.87;101237.28;10349932;28;20990;-71
2021/07/17 09:50:58;;;;;;;8.93;4.40;;;;;;;26.21;47.65;101229.50;10350545;28;20246;-71
2021/07/17 09:56:06;;;;;;;7.75;4.80;;;;;;;27.42;45.35;101233.22;10349360;28;20652;-71
2021/07/17 10:01:24;;;;;;;9.93;4.63;;;;;;;25.87;48.75;101224.09;10349573;28;20230;-71
2021/07/17 10:06:42;;;;;;;5.60;3.72;;;;;;;26.37;48.39;101227.47;10351212;28;20605;-71
2021/07/17 10:11:52;;;;;;;11.13;4.22;;;;;;;26.51;47.51;101224.50;10351001;28;20218;-71
2021/07/17 10:16:59;;;;;;;8.57;4.40;;;;;;;26.17;46.73;101221.88;10351197;28;20659;-71
2021/07/17 10:22:03;;;;;;;7.68;3.63;;;;;;;27.20;45.98;101222.41;10351049;28;20234;-71
2021/07/17 10:27:07;;;;;;;6.85;3.70;;;;;;;26.44;46.79;101226.41;10348512;28;20239;-72
2021/07/17 10:32:12;;;;;;;9.73;4.10;;;;;;;26.21;48.05;101226.75;10384851;28;20240;-72
2021/07/17 10:37:18;;;;;;;6.93;3.55;;;;;;;27.22;46.13;101220.28;10391024;28;20237;-73
2021/07/17 10:42:25;;;;;;;7.88;4.22;;;;;;;26.18;47.56;101223.56;10360817;28;20233;-72
2021/07/17 10:47:39;;;;;;;6.85;3.80;;;;;;;28.48;43.68;101213.41;10373973;28;20719;-72
2021/07/17 10:52:44;;;;;;;7.75;3.92;;;;;;;28.32;43.71;101213.94;10392475;28;20237;-73
2021/07/17 10:57:47;;;;;;;11.25;4.00;;;;;;;28.16;43.80;101213.41;10389857;28;20248;-74
2021/07/17 11:03:15;;;;;;;7.47;3.72;;;;;;;28.21;42.48;101218.25;10390609;28;20602;-73
2021/07/17 11:08:33;;;;;;;8.77;3.70;;;;;;;27.46;45.36;101216.03;10379403;28;20237;-73
2021/07/17 11:13:38;;;;;;;5.40;3.17;;;;;;;28.14;42.59;101209.16;10390024;28;20315;-73
2021/07/17 11:18:42;;;;;;;5.82;2.58;;;;;;;27.58;44.01;101214.28;10388682;28;20229;-73
2021/07/17 11:23:46;;;;;;;6.28;2.47;;;;;;;28.59;41.14;101209.13;10390163;28;20226;-72
2021/07/17 11:28:57;;;;;;;3.80;2.60;;;;;;;29.49;39.35;101201.25;10388626;28;20225;-72
2021/07/17 11:34:38;;;;;;;5.88;2.40;;;;;;;27.87;42.97;101205.69;10388587;28;20248;-74
2021/07/17 11:39:44;;;;;;;7.43;2.28;;;;;;;28.86;40.26;101205.06;10388916;28;20266;-73
2021/07/17 11:44:49;;;;;;;4.53;2.00;;;;;;;29.38;37.95;101200.09;10395191;28;20240;-72
2021/07/17 11:49:53;;;;;;;5.35;1.80;;;;;;;30.21;36.31;101198.66;10378954;28;20238;-72
2021/07/17 11:55:00;;;;;;;4.50;1.90;;;;;;;29.99;36.72;101200.22;10339890;28;20245;-72
2021/07/17 12:00:09;;;;;;;4.18;1.75;;;;;;;30.49;35.38;101180.53;10329128;28;20698;-72
2021/07/17 12:05:28;;;;;;;4.38;1.30;;;;;;;30.10;34.63;101182.81;10339980;28;20995;-72
2021/07/17 12:10:34;;;;;;;3.63;1.88;;;;;;;30.51;36.26;101177.53;10346649;28;20234;-72
2021/07/17 12:15:38;;;;;;;6.35;2.03;;;;;;;31.28;35.01;101169.16;10376927;28;20252;-72
2021/07/17 12:20:43;;;;;;;3.65;1.70;;;;;;;29.59;35.84;101159.19;10393316;28;20245;-73
2021/07/17 12:25:49;;;;;;;4.90;1.58;;;;;;;30.74;33.82;101165.63;10393397;28;20241;-72
2021/07/17 12:30:58;;;;;;;3.53;1.40;;;;;;;31.79;31.94;101162.75;10394615;28;20375;-72
2021/07/17 12:36:07;;;;;;;3.20;1.52;;;;;;;30.62;34.14;101162.84;10336257;28;20243;-72
2021/07/17 12:41:14;;;;;;;3.25;1.60;;;;;;;29.68;36.09;101152.28;10313192;28;20234;-72
2021/07/17 12:46:18;;;;;;;3.97;1.80;;;;;;;31.25;33.37;101156.59;10313355;28;20243;-72
2021/07/17 12:51:24;;;;;;;6.05;2.15;;;;;;;30.90;33.75;101153.81;10310278;28;20270;-72
2021/07/17 12:56:33;;;;;;;6.60;1.60;;;;;;;32.16;33.06;101140.13;10348083;28;20720;-72
2021/07/17 13:01:38;;;;;;;5.57;1.48;;;;;;;32.76;31.16;101140.59;10362129;28;20451;-73
2021/07/17 13:06:43;;;;;;;3.45;1.27;;;;;;;31.14;32.53;101147.16;10386527;28;20237;-72
2021/07/17 13:11:51;;;;;;;2.88;1.52;;;;;;;32.00;30.84;101132.56;10391717;28;20244;-73
2021/07/17 13:16:55;;;;;;;4.68;1.77;;;;;;;32.48;30.50;101136.78;10364513;28;20242;-73
2021/07/17 13:22:06;;;;;;;7.68;1.98;;;;;;;31.94;30.09;101125.25;10350995;28;20707;-72
2021/07/17 13:27:29;;;;;;;2.42;1.15;;;;;;;32.24;28.46;101133.31;10350165;28;20254;-73
2021/07/17 13:32:35;;;;;;;1.45;1.05;;;;;;;32.95;27.61;101133.63;10350899;28;20237;-72
2021/07/17 13:37:38;;;;;;;3.08;1.00;;;;;;;33.63;28.14;101128.72;10349925;28;20245;-73
2021/07/17 13:42:48;;;;;;;4.28;1.67;;;;;;;33.03;28.80;101124.84;10350501;28;21949;-73
2021/07/17 13:47:51;;;;;;;4.20;1.55;;;;;;;30.64;31.96;101117.16;10352391;28;20742;-72
2021/07/17 13:53:03;;;;;;;2.50;1.20;;;;;;;32.27;30.67;101127.25;10353154;28;20327;-73
2021/07/17 13:58:12;;;;;;;3.13;1.40;;;;;;;32.94;29.31;101111.63;10351017;28;20262;-72
2021/07/17 14:03:15;;;;;;;2.05;1.10;;;;;;;33.38;26.50;101117.25;10349304;28;20237;-73
2021/07/17 14:08:19;;;;;;;2.72;1.30;;;;;;;33.59;26.62;101112.75;10348501;28;20230;-73
2021/07/17 14:13:23;;;;;;;1.98;1.40;;;;;;;33.69;27.00;101112.91;10350220;28;20221;-73
2021/07/17 14:18:27;;;;;;;3.63;1.42;;;;;;;33.53;28.07;101107.13;10348282;28;20635;-72
2021/07/17 14:23:31;;;;;;;6.22;1.63;;;;;;;32.88;29.18;101113.50;10349190;28;20912;-72
2021/07/17 14:28:37;;;;;;;3.03;1.40;;;;;;;32.69;28.31;101112.94;10348898;28;20238;-73
2021/07/17 14:33:40;;;;;;;2.45;1.25;;;;;;;32.37;28.75;101101.56;10350820;28;20233;-73
2021/07/17 14:38:42;;;;;;;2.03;1.48;;;;;;;33.31;28.04;101107.16;10349555;28;20233;-73
2021/07/17 14:43:47;;;;;;;2.70;1.50;;;;;;;32.00;29.15;101097.28;10347717;28;20638;-72
2021/07/17 14:48:50;;;;;;;5.43;1.60;;;;;;;31.52;29.34;101098.59;10346460;28;20230;-73
2021/07/17 14:53:54;;;;;;;3.08;1.40;;;;;;;32.10;28.82;101093.88;10330353;28;20608;-73
2021/07/17 14:58:58;;;;;;;4.75;1.60;;;;;;;32.03;28.71;101087.63;10328430;28;20246;-72
2021/07/17 15:04:02;;;;;;;4.78;1.30;;;;;;;32.88;28.02;101078.19;10374280;28;20414;-72
2021/07/17 15:09:05;;;;;;;2.78;1.35;;;;;;;31.88;29.01;101079.88;10380150;28;20245;-72
2021/07/17 15:14:09;;;;;;;3.42;1.38;;;;;;;31.52;29.04;101086.66;10372683;28;20241;-72
2021/07/17 15:19:12;;;;;;;2.45;1.25;;;;;;;32.14;27.95;101088.63;10361615;28;20230;-72
2021/07/17 15:24:16;;;;;;;1.33;1.00;;;;;;;32.68;27.79;101072.31;10346246;28;20713;-72
2021/07/17 15:29:20;;;;;;;3.35;1.27;;;;;;;33.13;26.74;101074.03;10345864;28;20234;-73
2021/07/17 15:34:24;;;;;;;3.47;1.35;;;;;;;32.98;27.15;101071.91;10347747;28;20616;-73
2021/07/17 15:39:27;;;;;;;1.98;1.13;;;;;;;32.21;28.69;101076.31;10354476;28;20267;-72
2021/07/17 15:44:31;;;;;;;2.53;1.20;;;;;;;32.23;28.30;101065.78;10348750;28;20241;-72
2021/07/17 15:49:34;;;;;;;3.80;1.20;;;;;;;32.20;27.22;101057.94;10387441;28;20237;-72
2021/07/17 15:54:37;;;;;;;3.92;1.35;;;;;;;31.92;28.40;101077.41;10387778;28;20230;-72
2021/07/17 15:59:42;;;;;;;2.85;1.58;;;;;;;32.12;28.11;101061.13;10393205;28;20290;-73
2021/07/17 16:04:45;;;;;;;3.42;1.50;;;;;;;32.35;28.13;101064.84;10387659;28;20252;-72
2021/07/17 16:09:48;;;;;;;2.05;1.35;;;;;;;32.30;28.39;101070.31;10386972;28;20380;-72
2021/07/17 16:14:52;;;;;;;2.22;1.40;;;;;;;32.59;27.70;101065.50;10388394;28;20234;-72
2021/07/17 16:19:55;;;;;;;3.45;1.33;;;;;;;31.48;28.21;101066.03;10384971;28;20726;-72
2021/07/17 16:24:58;;;;;;;4.10;1.55;;;;;;;32.19;27.99;101056.25;10386145;28;20226;-72
2021/07/17 16:30:03;;;;;;;3.28;1.30;;;;;;;31.93;27.92;101068.84;10397286;28;20326;-72
2021/07/17 16:35:08;;;;;;;1.88;1.20;;;;;;;32.23;28.23;101065.78;10394568;28;20252;-72
2021/07/17 16:40:12;;;;;;;1.45;1.08;;;;;;;32.67;27.74;101056.75;10383413;28;20290;-72
2021/07/17 16:45:20;;;;;;;4.63;1.42;;;;;;;33.51;28.78;101062.00;10328387;28;20246;-70
2021/07/17 16:50:23;;;;;;;2.08;1.15;;;;;;;36.60;24.14;101050.09;10333269;28;20311;-70
2021/07/17 16:55:26;;;;;;;4.60;1.23;;;;;;;38.34;22.50;101054.75;10354880;28;20238;-72
2021/07/17 17:00:30;;;;;;;2.53;1.58;;;;;;;39.84;20.17;101065.81;10360659;28;20717;-71
2021/07/17 17:05:34;;;;;;;5.38;1.40;;;;;;;39.71;20.75;101058.94;10351096;28;20311;-71
2021/07/17 17:10:37;;;;;;;1.55;1.20;;;;;;;40.15;20.30;101052.03;10353394;28;20702;-71
2021/07/17 17:15:41;;;;;;;1.83;1.20;;;;;;;39.90;20.54;101056.16;10351245;28;20253;-71
2021/07/17 17:20:45;;;;;;;2.50;1.77;;;;;;;39.18;20.94;101057.16;10352042;28;20313;-71
2021/07/17 17:25:49;;;;;;;2.70;1.42;;;;;;;39.09;21.42;101060.97;10350830;28;20758;-70
2021/07/17 17:30:53;;;;;;;1.75;1.30;;;;;;;38.70;21.95;101051.59;10351172;28;20229;-71
2021/07/17 17:35:56;;;;;;;3.42;1.17;;;;;;;37.82;22.84;101063.84;10359550;28;20621;-71
2021/07/17 17:41:01;;;;;;;3.08;1.65;;;;;;;38.29;22.04;101066.00;10351029;28;20308;-71
2021/07/17 17:46:05;;;;;;;5.45;2.08;;;;;;;37.09;23.56;101072.91;10354489;28;20245;-71
2021/07/17 17:51:08;;;;;;;1.95;1.55;;;;;;;35.65;25.50;101069.34;10349856;28;20263;-71
2021/07/17 17:56:11;;;;;;;2.47;1.55;;;;;;;34.31;26.77;101070.63;10350482;28;20241;-71
2021/07/17 18:01:15;;;;;;;4.60;1.10;;;;;;;30.50;31.90;101071.34;10351779;28;20238;-70
2021/07/17 18:06:18;;;;;;;4.05;1.38;;;;;;;28.12;35.30;101079.59;10333011;28;20308;-70
2021/07/17 18:11:21;;;;;;;2.95;1.38;;;;;;;26.68;38.48;101087.16;10336001;28;20245;-70
2021/07/17 18:16:25;;;;;;;2.78;1.30;;;;;;;26.00;39.98;101086.50;10326970;28;20235;-71
2021/07/17 18:21:28;;;;;;;4.03;1.50;;;;;;;25.24;40.80;101084.78;10335052;28;20230;-71
2021/07/17 18:26:31;;;;;;;6.32;1.55;;;;;;;24.70;41.43;101094.59;10389303;28;20218;-70
2021/07/17 18:31:35;;;;;;;4.03;1.30;;;;;;;24.44;41.79;101095.25;10389497;28;20217;-70
2021/07/17 18:36:38;;;;;;;2.28;1.50;;;;;;;24.12;42.72;101098.53;10389095;28;20257;-72
2021/07/17 18:41:41;;;;;;;3.65;1.40;;;;;;;23.79;43.85;101105.38;10389256;28;20195;-71
2021/07/17 18:46:46;;;;;;;2.42;1.30;;;;;;;23.66;44.29;101113.41;10387061;28;20217;-71
2021/07/17 18:51:49;;;;;;;3.38;1.48;;;;;;;23.43;45.01;101113.56;10387458;28;20214;-72
2021/07/17 18:56:52;;;;;;;2.42;1.48;;;;;;;23.18;45.87;101111.13;10386455;28;20223;-71
2021/07/17 19:01:56;;;;;;;1.80;1.50;;;;;;;23.03;46.47;101121.19;10386738;28;20183;-71
2021/07/17 19:07:01;;;;;;;5.28;1.70;;;;;;;22.69;47.48;101119.88;10401516;28;20224;-72
2021/07/17 19:12:04;;;;;;;3.15;1.33;;;;;;;22.55;47.96;101123.44;10429064;28;20224;-73
2021/07/17 19:17:08;;;;;;;1.83;1.40;;;;;;;22.38;48.33;101121.81;10417266;28;20217;-72
2021/07/17 19:22:11;;;;;;;2.75;1.55;;;;;;;22.24;48.31;101121.63;10423160;28;20659;-72
2021/07/17 19:27:14;;;;;;;4.60;1.85;;;;;;;22.06;49.41;101124.66;10428186;28;20245;-72
2021/07/17 19:32:18;;;;;;;4.70;1.65;;;;;;;21.93;49.68;101129.03;10422263;28;20603;-72
2021/07/17 19:37:22;;;;;;;2.42;1.95;;;;;;;21.70;50.24;101123.50;10406812;28;20210;-72
2021/07/17 19:42:25;;;;;;;2.60;1.80;;;;;;;21.21;51.11;101122.69;10407937;28;20703;-73
2021/07/17 19:47:29;;;;;;;2.67;1.27;;;;;;;21.16;51.96;101135.19;10405579;28;20217;-72
2021/07/17 19:52:33;;;;;;;4.50;1.60;;;;;;;21.04;51.75;101137.44;10408361;28;20210;-72
2021/07/17 19:57:36;;;;;;;2.47;1.60;;;;;;;20.84;52.28;101131.47;10428077;28;20214;-71
2021/07/17 20:02:41;;;;;;;3.97;1.80;;;;;;;20.68;52.61;101131.50;10430823;28;20594;-71
2021/07/17 20:07:44;;;;;;;1.95;1.60;;;;;;;20.60;52.87;101131.50;10434316;28;20213;-71
2021/07/17 20:12:49;;;;;;;2.97;1.45;;;;;;;20.52;53.00;101126.94;10434850;28;20228;-72
2021/07/17 20:17:53;;;;;;;2.85;1.70;;;;;;;20.45;53.53;101136.81;10434391;28;20807;-72
2021/07/17 20:22:56;;;;;;;6.38;1.90;;;;;;;20.41;53.69;101130.84;10434508;28;20663;-71
2021/07/17 20:27:59;;;;;;;4.43;1.70;;;;;;;20.37;53.56;101128.63;10434056;28;20216;-72
2021/07/17 20:33:05;;;;;;;3.85;1.95;;;;;;;20.17;54.55;101144.47;10434185;28;20214;-72
2021/07/17 20:38:08;;;;;;;4.95;1.95;;;;;;;20.04;54.87;101143.06;10393229;28;20803;-72
2021/07/17 20:43:14;;;;;;;2.80;1.73;;;;;;;19.96;54.80;101139.47;10423927;28;20186;-72
2021/07/17 20:48:19;;;;;;;2.95;2.17;;;;;;;19.88;55.50;101135.72;10434004;28;20690;-71
2021/07/17 20:53:22;;;;;;;7.82;2.63;;;;;;;19.81;55.82;101133.84;10433681;28;20210;-72
2021/07/17 20:58:28;;;;;;;3.95;2.20;;;;;;;19.74;56.51;101135.50;10432999;28;20216;-71
2021/07/17 21:03:32;;;;;;;3.20;2.30;;;;;;;19.59;57.25;101136.16;10435787;28;20208;-73
2021/07/17 21:08:35;;;;;;;2.85;1.77;;;;;;;19.49;58.22;101129.94;10432910;28;20210;-73
2021/07/17 21:13:38;;;;;;;3.60;1.73;;;;;;;19.30;59.29;101138.38;10431918;28;20228;-72
2021/07/17 21:18:42;;;;;;;3.78;2.15;;;;;;;19.25;59.70;101136.16;10432363;28;20298;-72
2021/07/17 21:23:45;;;;;;;3.97;1.95;;;;;;;19.13;60.40;101134.75;10432213;28;20186;-73
2021/07/17 21:28:48;;;;;;;4.72;2.28;;;;;;;19.07;60.85;101135.41;10431897;28;20214;-72
2021/07/17 21:33:52;;;;;;;5.80;2.40;;;;;;;18.94;61.33;101133.94;10431851;28;20709;-72
2021/07/17 21:38:55;;;;;;;7.82;2.03;;;;;;;18.86;61.81;101143.94;10431364;28;20670;-72
2021/07/17 21:43:58;;;;;;;2.95;2.20;;;;;;;18.67;62.40;101150.41;10431417;28;20189;-73
2021/07/17 21:49:03;;;;;;;5.38;2.00;;;;;;;18.65;62.40;101150.59;10431672;28;20312;-73
2021/07/17 21:54:07;;;;;;;3.60;1.83;;;;;;;18.55;62.96;101149.81;10431311;28;20213;-72
2021/07/17 21:59:10;;;;;;;4.07;1.88;;;;;;;18.45;63.05;101147.16;10431502;28;20622;-72
2021/07/17 22:04:14;;;;;;;3.13;1.90;;;;;;;18.34;63.43;101151.00;10428631;28;20213;-73
2021/07/17 22:09:17;;;;;;;2.85;2.13;;;;;;;18.30;63.75;101144.16;10430104;28;20221;-73
2021/07/17 22:14:20;;;;;;;4.97;2.10;;;;;;;18.34;63.80;101147.41;10429372;28;20679;-72
2021/07/17 22:19:24;;;;;;;4.10;2.03;;;;;;;18.36;63.82;101132.66;10429688;28;20218;-72
2021/07/17 22:24:27;;;;;;;3.58;2.45;;;;;;;18.23;64.31;101139.50;10429190;28;20186;-72
2021/07/17 22:29:30;;;;;;;3.90;2.28;;;;;;;18.16;64.33;101136.56;10429432;28;20210;-72
2021/07/17 22:34:34;;;;;;;3.58;1.88;;;;;;;18.12;64.54;101140.59;10428905;28;20636;-72
2021/07/17 22:39:37;;;;;;;4.40;2.13;;;;;;;17.98;64.65;101130.28;10429218;28;20289;-72
2021/07/17 22:44:39;;;;;;;3.30;2.15;;;;;;;17.93;65.08;101126.09;10428604;28;20559;-72
2021/07/17 22:49:44;;;;;;;6.13;2.45;;;;;;;17.84;65.20;101124.31;10428849;28;20213;-72
2021/07/17 22:54:47;;;;;;;5.57;2.70;;;;;;;17.77;65.42;101125.97;10428289;28;20220;-72
2021/07/17 22:59:50;;;;;;;6.18;2.25;;;;;;;17.60;65.63;101133.06;10428474;28;20686;-72
2021/07/17 23:04:55;;;;;;;5.38;2.20;;;;;;;17.54;66.39;101130.09;10430808;28;20597;-72
2021/07/17 23:09:57;;;;;;;6.13;3.00;;;;;;;17.50;66.61;101120.53;10426664;28;20234;-72